createdAt,value
2022-10-28T00:00:09.816Z,20.21
2022-10-28T00:02:38.264Z,19.34
2022-10-28T00:05:05.616Z,19.71
2022-10-28T00:07:32.733Z,19.96
2022-10-28T00:10:00.169Z,19.61
2022-10-28T00:12:27.288Z,19.61
2022-10-28T00:14:54.406Z,20.06
2022-10-28T00:17:21.860Z,20.20
2022-10-28T00:19:48.988Z,20.69
2022-10-28T00:22:16.112Z,20.59
2022-10-28T00:24:43.510Z,20.12
2022-10-28T00:27:10.642Z,20.14
2022-10-28T00:29:37.752Z,20.37
2022-10-28T00:32:05.265Z,20.58
2022-10-28T00:34:32.386Z,19.67
2022-10-28T00:36:59.490Z,20.37
2022-10-28T00:39:27.830Z,20.62
2022-10-28T00:41:56.225Z,19.95
2022-10-28T00:44:41.993Z,20.45
2022-10-28T00:47:29.670Z,21.18
2022-10-28T00:49:57.834Z,20.15
2022-10-28T00:52:26.622Z,19.84
2022-10-28T00:54:53.738Z,19.59
2022-10-28T00:57:22.370Z,20.15
2022-10-28T00:59:50.170Z,20.31
2022-10-28T01:02:17.501Z,20.76
2022-10-28T01:04:44.717Z,21.03
2022-10-28T01:07:12.129Z,20.46
2022-10-28T01:09:39.734Z,20.38
2022-10-28T01:12:14.510Z,20.09
2022-10-28T01:15:11.377Z,20.00
2022-10-28T01:17:38.469Z,20.05
2022-10-28T01:20:28.165Z,19.27
2022-10-28T01:23:18.677Z,19.03
2022-10-28T01:25:46.025Z,19.48
2022-10-28T01:28:25.388Z,19.36
2022-10-28T01:31:05.173Z,19.98
2022-10-28T01:33:36.338Z,20.46
2022-10-28T01:36:12.786Z,20.63
2022-10-28T01:38:42.938Z,20.53
2022-10-28T01:41:33.665Z,19.99
2022-10-28T01:44:13.860Z,19.78
2022-10-28T01:46:42.099Z,19.38
2022-10-28T01:49:30.809Z,20.45
2022-10-28T01:51:59.319Z,20.52
2022-10-28T01:54:27.292Z,20.53
2022-10-28T01:56:54.434Z,20.65
2022-10-28T01:59:25.604Z,20.82
2022-10-28T02:01:53.822Z,20.89
2022-10-28T02:04:21.299Z,20.93
2022-10-28T02:06:50.606Z,21.10
2022-10-28T02:09:17.667Z,20.87
2022-10-28T02:11:45.007Z,20.78
2022-10-28T02:14:22.753Z,20.81
2022-10-28T02:16:52.205Z,20.75
2022-10-28T02:19:25.462Z,20.92
2022-10-28T02:22:11.608Z,20.61
2022-10-28T02:24:41.620Z,20.06
2022-10-28T02:27:21.086Z,20.08
2022-10-28T02:29:53.776Z,20.23
2022-10-28T02:32:21.686Z,20.60
2022-10-28T02:34:51.521Z,20.12
2022-10-28T02:37:20.796Z,20.67
2022-10-28T02:39:49.295Z,20.96
2022-10-28T02:42:21.040Z,20.74
2022-10-28T02:44:49.152Z,20.53
2022-10-28T02:47:19.139Z,21.06
2022-10-28T02:49:50.611Z,21.18
2022-10-28T02:52:18.009Z,21.05
2022-10-28T02:54:55.223Z,20.41
2022-10-28T02:57:26.901Z,20.65
2022-10-28T02:59:58.022Z,21.19
2022-10-28T03:02:25.495Z,20.76
2022-10-28T03:04:52.765Z,20.14
2022-10-28T03:07:20.000Z,19.99
2022-10-28T03:09:47.389Z,19.78
2022-10-28T03:12:14.577Z,19.74
2022-10-28T03:14:42.445Z,19.38
2022-10-28T03:17:09.858Z,20.48
2022-10-28T03:19:36.976Z,20.74
2022-10-28T03:22:04.097Z,20.30
2022-10-28T03:24:31.470Z,20.42
2022-10-28T03:26:58.586Z,20.50
2022-10-28T03:29:25.731Z,20.28
2022-10-28T03:31:53.153Z,19.95
2022-10-28T03:34:20.371Z,20.13
2022-10-28T03:36:47.476Z,20.54
2022-10-28T03:39:14.856Z,20.64
2022-10-28T03:41:41.968Z,20.62
2022-10-28T03:44:09.083Z,20.55
2022-10-28T03:46:36.473Z,20.55
2022-10-28T03:49:03.945Z,20.47
2022-10-28T03:51:31.085Z,19.72
2022-10-28T03:53:58.512Z,18.59
2022-10-28T03:56:25.626Z,19.06
2022-10-28T04:01:25.101Z,19.43
2022-10-28T04:03:52.534Z,18.90
2022-10-28T04:06:19.679Z,19.63
2022-10-28T04:08:46.787Z,19.85
2022-10-28T04:11:14.177Z,19.59
2022-10-28T04:13:41.272Z,18.88
2022-10-28T04:16:08.386Z,19.43
2022-10-28T04:18:35.845Z,19.68
2022-10-28T04:21:03.099Z,18.46
2022-10-28T04:23:30.222Z,19.34
2022-10-28T04:25:57.601Z,18.87
2022-10-28T04:28:24.729Z,19.23
2022-10-28T04:30:51.849Z,18.85
2022-10-28T04:33:19.313Z,19.44
2022-10-28T04:35:46.460Z,19.73
2022-10-28T04:38:14.277Z,19.59
2022-10-28T04:40:41.747Z,18.98
2022-10-28T04:43:10.228Z,19.25
2022-10-28T04:45:37.729Z,18.69
2022-10-28T04:48:05.145Z,18.84
2022-10-28T04:50:32.321Z,18.70
2022-10-28T04:53:00.721Z,17.90
2022-10-28T04:55:28.850Z,16.96
2022-10-28T04:57:56.378Z,17.82
2022-10-28T05:00:28.339Z,18.45
2022-10-28T05:02:57.353Z,19.08
2022-10-28T05:05:27.396Z,18.74
2022-10-28T05:07:58.559Z,18.87
2022-10-28T05:10:25.959Z,18.89
2022-10-28T05:12:53.082Z,19.37
2022-10-28T05:15:20.181Z,19.86
2022-10-28T05:17:47.658Z,19.68
2022-10-28T05:20:15.806Z,19.76
2022-10-28T05:22:46.567Z,19.75
2022-10-28T05:25:14.023Z,19.22
2022-10-28T05:27:41.133Z,19.67
2022-10-28T05:30:08.721Z,19.97
2022-10-28T05:32:36.357Z,19.98
2022-10-28T05:35:03.588Z,20.14
2022-10-28T05:37:30.795Z,19.96
2022-10-28T05:39:58.200Z,20.48
2022-10-28T05:42:25.362Z,19.79
2022-10-28T05:44:52.478Z,19.88
2022-10-28T05:47:20.001Z,19.15
2022-10-28T05:49:47.272Z,19.00
2022-10-28T05:52:14.398Z,19.07
2022-10-28T05:54:41.805Z,19.56
2022-10-28T05:57:08.910Z,18.99
2022-10-28T05:59:36.023Z,18.43
2022-10-28T06:02:03.652Z,19.35
2022-10-28T06:04:31.268Z,18.19
2022-10-28T06:06:58.395Z,18.65
2022-10-28T06:09:26.999Z,19.62
2022-10-28T06:11:53.019Z,19.58
2022-10-28T06:14:20.144Z,19.78
2022-10-28T06:16:47.283Z,19.72
2022-10-28T06:19:14.681Z,19.81
2022-10-28T06:21:41.782Z,19.44
2022-10-28T06:24:12.153Z,18.99
2022-10-28T06:26:39.808Z,18.67
2022-10-28T06:29:08.693Z,18.36
2022-10-28T06:31:39.372Z,18.52
2022-10-28T06:34:07.659Z,19.24
2022-10-28T06:36:34.840Z,18.87
2022-10-28T06:39:01.950Z,19.26
2022-10-28T06:41:29.520Z,19.65
2022-10-28T06:43:56.650Z,19.00
2022-10-28T06:46:23.786Z,19.50
2022-10-28T06:48:54.017Z,19.66
2022-10-28T06:51:21.217Z,19.70
2022-10-28T06:53:48.823Z,19.66
2022-10-28T06:56:16.212Z,18.44
2022-10-28T06:58:43.338Z,18.91
2022-10-28T07:01:10.515Z,19.75
2022-10-28T07:03:37.970Z,19.44
2022-10-28T07:06:06.679Z,19.89
2022-10-28T07:08:34.079Z,19.76
2022-10-28T07:11:02.656Z,19.39
2022-10-28T07:13:29.784Z,19.21
2022-10-28T07:15:57.705Z,19.10
2022-10-28T07:18:25.655Z,18.79
2022-10-28T07:20:53.004Z,17.70
2022-10-28T07:23:20.399Z,17.48
2022-10-28T07:25:56.951Z,17.73
2022-10-28T07:28:24.928Z,17.09
2022-10-28T07:30:52.471Z,17.84
2022-10-28T07:33:19.634Z,17.68
2022-10-28T07:35:46.792Z,17.55
2022-10-28T07:38:14.173Z,17.37
2022-10-28T07:40:41.505Z,17.18
2022-10-28T07:43:08.655Z,17.76
2022-10-28T07:45:36.318Z,17.32
2022-10-28T07:48:03.808Z,18.37
2022-10-28T07:50:30.909Z,18.34
2022-10-28T07:52:58.423Z,18.98
2022-10-28T07:55:26.252Z,18.58
2022-10-28T07:57:53.589Z,18.59
2022-10-28T08:00:21.240Z,18.94
2022-10-28T08:02:48.595Z,16.90
2022-10-28T08:05:15.886Z,18.19
2022-10-28T08:07:43.397Z,17.36
2022-10-28T08:10:12.333Z,18.85
2022-10-28T08:12:39.428Z,17.99
2022-10-28T08:15:09.460Z,18.14
2022-10-28T08:17:36.875Z,18.05
2022-10-28T08:20:04.805Z,18.44
2022-10-28T08:22:31.939Z,17.40
2022-10-28T08:24:59.417Z,17.84
2022-10-28T08:27:26.536Z,17.26
2022-10-28T08:29:54.081Z,17.27
2022-10-28T08:32:21.476Z,17.41
2022-10-28T08:34:48.596Z,17.20
2022-10-28T08:37:16.365Z,16.71
2022-10-28T08:39:46.230Z,17.11
2022-10-28T08:42:22.654Z,17.92
2022-10-28T08:44:54.019Z,18.23
2022-10-28T08:47:30.337Z,18.21
2022-10-28T08:50:20.792Z,19.02
2022-10-28T08:52:54.944Z,18.60
2022-10-28T08:55:35.560Z,19.14
2022-10-28T08:58:13.344Z,17.48
2022-10-28T09:00:40.794Z,17.77
2022-10-28T09:03:18.598Z,17.01
2022-10-28T09:05:48.012Z,17.98
2022-10-28T09:08:25.095Z,18.78
2022-10-28T09:11:01.520Z,18.81
2022-10-28T09:13:31.683Z,17.91
2022-10-28T09:16:05.294Z,18.35
2022-10-28T09:18:35.137Z,17.71
2022-10-28T09:21:03.453Z,18.62
2022-10-28T09:23:34.126Z,17.40
2022-10-28T09:26:20.675Z,16.79
2022-10-28T09:28:54.767Z,17.26
2022-10-28T09:31:25.056Z,17.82
2022-10-28T09:34:07.696Z,18.35
2022-10-28T09:36:41.806Z,18.69
2022-10-28T09:39:22.844Z,19.32
2022-10-28T09:41:53.980Z,18.89
2022-10-28T09:44:22.566Z,18.88
2022-10-28T09:46:51.537Z,17.82
2022-10-28T09:49:19.324Z,17.58
2022-10-28T09:51:54.413Z,18.87
2022-10-28T09:54:27.908Z,19.08
2022-10-28T09:56:55.551Z,18.58
2022-10-28T09:59:22.695Z,19.15
2022-10-28T10:01:49.978Z,19.25
2022-10-28T10:04:21.474Z,19.66
2022-10-28T10:06:50.173Z,19.82
2022-10-28T10:09:21.926Z,19.72
2022-10-28T10:11:49.225Z,19.40
2022-10-28T10:14:17.817Z,18.70
2022-10-28T10:16:46.138Z,18.64
2022-10-28T10:19:13.335Z,18.42
2022-10-28T10:21:42.420Z,19.07
2022-10-28T10:24:23.304Z,18.43
2022-10-28T10:26:51.213Z,19.06
2022-10-28T10:29:18.710Z,19.56
2022-10-28T10:31:45.863Z,19.49
2022-10-28T10:34:25.683Z,20.17
2022-10-28T10:36:55.150Z,20.29
2022-10-28T10:39:31.536Z,19.53
2022-10-28T10:41:58.915Z,19.58
2022-10-28T10:44:35.397Z,19.17
2022-10-28T10:47:06.064Z,18.54
2022-10-28T10:49:34.857Z,18.91
2022-10-28T10:52:07.759Z,18.77
2022-10-28T10:54:35.796Z,18.29
2022-10-28T10:57:09.897Z,18.98
2022-10-28T10:59:37.835Z,19.83
2022-10-28T11:02:05.209Z,19.52
2022-10-28T11:04:36.845Z,19.75
2022-10-28T11:07:04.264Z,19.61
2022-10-28T11:09:32.176Z,18.61
2022-10-28T11:11:59.321Z,18.33
2022-10-28T11:14:31.536Z,17.44
2022-10-28T11:16:59.711Z,17.60
2022-10-28T11:19:34.584Z,18.89
2022-10-28T11:22:05.459Z,18.42
2022-10-28T11:24:51.418Z,17.97
2022-10-28T11:27:28.378Z,18.81
2022-10-28T11:29:55.979Z,19.06
2022-10-28T11:32:29.034Z,19.00
2022-10-28T11:35:15.228Z,18.32
2022-10-28T11:37:51.262Z,17.83
2022-10-28T11:40:22.201Z,17.86
2022-10-28T11:43:04.458Z,17.95
2022-10-28T11:45:45.879Z,18.61
2022-10-28T11:48:39.850Z,17.51
2022-10-28T11:51:12.903Z,17.68
2022-10-28T11:53:43.018Z,18.82
2022-10-28T11:56:19.630Z,19.24
2022-10-28T11:58:56.335Z,19.85
2022-10-28T12:01:32.948Z,19.65
2022-10-28T12:04:17.491Z,19.26
2022-10-28T12:06:47.608Z,19.66
2022-10-28T12:09:38.344Z,19.58
2022-10-28T12:12:11.336Z,19.05
2022-10-28T12:14:41.804Z,19.13
2022-10-28T12:17:21.051Z,18.70
2022-10-28T12:19:51.407Z,19.19
2022-10-28T12:22:27.206Z,18.96
2022-10-28T12:24:54.655Z,18.89
2022-10-28T12:27:23.770Z,18.77
2022-10-28T12:30:01.517Z,18.14
2022-10-28T12:32:32.636Z,18.94
2022-10-28T12:35:02.908Z,18.83
2022-10-28T12:37:42.124Z,17.30
2022-10-28T12:40:22.175Z,16.73
2022-10-28T12:42:52.900Z,17.33
2022-10-28T12:45:20.187Z,18.19
2022-10-28T12:47:51.428Z,18.68
2022-10-28T12:50:28.076Z,18.87
2022-10-28T12:53:01.218Z,18.82
2022-10-28T12:55:39.938Z,18.60
2022-10-28T12:58:13.056Z,19.32
2022-10-28T13:00:42.104Z,19.77
2022-10-28T13:03:12.984Z,19.23
2022-10-28T13:05:50.597Z,19.76
2022-10-28T13:08:26.912Z,19.19
2022-10-28T13:10:57.031Z,19.79
2022-10-28T13:13:26.673Z,18.68
2022-10-28T13:15:56.752Z,19.27
2022-10-28T13:18:24.078Z,18.82
2022-10-28T13:21:12.860Z,19.66
2022-10-28T13:23:43.527Z,19.95
2022-10-28T13:26:24.436Z,20.31
2022-10-28T13:28:52.838Z,20.34
2022-10-28T13:31:20.465Z,20.21
2022-10-28T13:33:51.925Z,20.57
2022-10-28T13:36:20.668Z,19.24
2022-10-28T13:38:51.872Z,19.07
2022-10-28T13:41:31.313Z,19.28
2022-10-28T13:43:59.855Z,20.20
2022-10-28T13:46:45.899Z,20.58
2022-10-28T13:49:22.700Z,20.07
2022-10-28T13:51:50.783Z,19.90
2022-10-28T13:54:25.051Z,20.08
2022-10-28T13:56:52.246Z,20.51
2022-10-28T13:59:24.008Z,20.81
2022-10-28T14:02:02.284Z,19.27
2022-10-28T14:04:41.974Z,19.82
2022-10-28T14:07:12.671Z,20.48
2022-10-28T14:09:41.274Z,20.24
2022-10-28T14:12:08.821Z,20.23
2022-10-28T14:14:36.101Z,20.59
2022-10-28T14:17:03.209Z,20.98
2022-10-28T14:19:30.596Z,21.11
2022-10-28T14:22:01.782Z,21.41
2022-10-28T14:24:31.811Z,19.23
2022-10-28T14:27:08.186Z,19.44
2022-10-28T14:29:48.958Z,20.53
2022-10-28T14:32:45.820Z,20.20
2022-10-28T14:35:15.969Z,20.06
2022-10-28T14:40:36.023Z,20.47
2022-10-28T14:43:18.697Z,20.71
2022-10-28T14:45:51.736Z,20.52
2022-10-28T14:48:25.085Z,20.22
2022-10-28T14:50:52.465Z,20.77
2022-10-28T14:53:28.156Z,20.41
2022-10-28T14:56:05.508Z,20.89
2022-10-28T14:58:42.679Z,21.18
2022-10-28T15:01:09.844Z,20.67
2022-10-28T15:03:37.306Z,20.62
2022-10-28T15:06:23.291Z,19.56
2022-10-28T15:08:50.751Z,20.51
2022-10-28T15:11:17.870Z,20.21
2022-10-28T15:13:48.702Z,19.84
2022-10-28T15:16:20.229Z,20.21
2022-10-28T15:18:49.154Z,20.64
2022-10-28T15:21:17.738Z,21.07
2022-10-28T15:23:47.364Z,20.96
2022-10-28T15:26:15.659Z,20.95
2022-10-28T15:28:43.280Z,21.01
2022-10-28T15:31:10.436Z,19.95
2022-10-28T15:33:41.163Z,19.97
2022-10-28T15:36:11.584Z,19.76
2022-10-28T15:38:42.794Z,19.96
2022-10-28T15:41:22.435Z,20.59
2022-10-28T15:43:56.195Z,20.65
2022-10-28T15:46:23.836Z,20.63
2022-10-28T15:48:54.492Z,20.85
2022-10-28T15:51:21.774Z,20.48
2022-10-28T15:53:53.851Z,20.27
2022-10-28T15:56:24.873Z,20.37
2022-10-28T15:59:10.668Z,20.34
2022-10-28T16:01:38.906Z,20.59
2022-10-28T16:04:26.756Z,20.75
2022-10-28T16:06:54.906Z,21.09
2022-10-28T16:09:27.916Z,20.05
2022-10-28T16:11:58.753Z,20.89
2022-10-28T16:14:26.085Z,21.22
2022-10-28T16:16:53.386Z,21.28
2022-10-28T16:19:30.398Z,20.77
2022-10-28T16:21:57.788Z,21.07
2022-10-28T16:24:24.890Z,20.57
2022-10-28T16:26:52.200Z,20.93
2022-10-28T16:29:19.578Z,20.92
2022-10-28T16:31:46.987Z,21.15
2022-10-28T16:34:14.290Z,20.70
2022-10-28T16:36:41.759Z,20.99
2022-10-28T16:39:11.679Z,21.16
2022-10-28T16:41:40.628Z,20.89
2022-10-28T16:44:17.757Z,20.88
2022-10-28T16:46:44.916Z,21.20
2022-10-28T16:49:12.464Z,20.92
2022-10-28T16:51:39.948Z,20.85
2022-10-28T16:54:07.781Z,21.02
2022-10-28T16:56:35.149Z,20.84
2022-10-28T16:59:02.272Z,20.92
2022-10-28T17:01:29.850Z,21.23
2022-10-28T17:03:57.453Z,20.98
2022-10-28T17:06:24.593Z,21.12
2022-10-28T17:09:07.207Z,21.31
2022-10-28T17:11:35.548Z,21.39
2022-10-28T17:14:02.921Z,21.54
2022-10-28T17:16:30.058Z,21.07
2022-10-28T17:18:57.464Z,21.16
2022-10-28T17:21:24.729Z,21.64
2022-10-28T17:23:53.237Z,20.86
2022-10-28T17:26:20.717Z,21.15
2022-10-28T17:28:51.344Z,21.11
2022-10-28T17:31:23.836Z,21.35
2022-10-28T17:33:53.510Z,21.53
2022-10-28T17:36:20.863Z,21.68
2022-10-28T17:38:49.101Z,21.36
2022-10-28T17:41:16.715Z,21.43
2022-10-28T17:43:43.930Z,21.71
2022-10-28T17:46:11.130Z,21.38
2022-10-28T17:48:40.324Z,21.39
2022-10-28T17:51:07.567Z,20.96
2022-10-28T17:53:34.914Z,21.23
2022-10-28T17:56:03.713Z,21.12
2022-10-28T17:58:31.222Z,20.79
2022-10-28T18:00:58.329Z,20.98
2022-10-28T18:03:26.508Z,20.36
2022-10-28T18:05:54.126Z,20.56
2022-10-28T18:08:21.688Z,21.13
2022-10-28T18:10:55.885Z,20.90
2022-10-28T18:13:27.225Z,20.92
2022-10-28T18:18:41.062Z,20.90
2022-10-28T18:21:14.045Z,21.26
2022-10-28T18:23:41.512Z,21.38
2022-10-28T18:26:12.736Z,21.47
2022-10-28T18:28:40.610Z,21.46
2022-10-28T18:31:09.963Z,21.49
2022-10-28T18:33:37.685Z,21.34
2022-10-28T18:36:06.606Z,20.90
2022-10-28T18:38:34.134Z,21.01
2022-10-28T18:41:01.461Z,21.44
2022-10-28T18:43:29.252Z,20.94
2022-10-28T18:46:00.176Z,21.32
2022-10-28T18:48:27.633Z,21.45
2022-10-28T18:50:58.430Z,21.70
2022-10-28T18:53:25.993Z,21.22
2022-10-28T18:55:53.610Z,21.14
2022-10-28T18:58:21.458Z,21.05
2022-10-28T19:00:49.041Z,20.89
2022-10-28T19:03:19.927Z,21.47
2022-10-28T19:05:47.912Z,21.49
2022-10-28T19:08:15.300Z,21.27
2022-10-28T19:10:42.519Z,20.72
2022-10-28T19:13:10.149Z,21.08
2022-10-28T19:15:42.100Z,21.61
2022-10-28T19:18:09.686Z,21.65
2022-10-28T19:20:37.288Z,21.68
2022-10-28T19:23:04.526Z,21.19
2022-10-28T19:25:31.948Z,20.53
2022-10-28T19:27:59.669Z,21.16
2022-10-28T19:30:26.928Z,20.36
2022-10-28T19:32:54.936Z,20.65
2022-10-28T19:35:22.729Z,20.82
2022-10-28T19:37:51.878Z,20.54
2022-10-28T19:40:19.587Z,20.64
2022-10-28T19:42:46.949Z,20.60
2022-10-28T19:45:15.196Z,19.89
2022-10-28T19:47:42.834Z,20.31
2022-10-28T19:50:10.492Z,20.32
2022-10-28T19:52:38.081Z,20.48
2022-10-28T19:55:07.137Z,20.61
2022-10-28T19:57:36.664Z,20.18
2022-10-28T20:00:04.510Z,20.36
2022-10-28T20:02:38.667Z,20.25
2022-10-28T20:05:06.266Z,20.53
2022-10-28T20:07:33.862Z,20.07
2022-10-28T20:10:01.017Z,20.55
2022-10-28T20:12:29.845Z,20.60
2022-10-28T20:14:57.526Z,20.83
2022-10-28T20:17:24.824Z,20.50
2022-10-28T20:19:52.571Z,21.05
2022-10-28T20:22:20.080Z,21.05
2022-10-28T20:24:47.598Z,20.91
2022-10-28T20:27:15.185Z,21.09
2022-10-28T20:29:42.331Z,21.21
2022-10-28T20:32:09.807Z,21.54
2022-10-28T20:34:37.367Z,21.02
2022-10-28T20:37:04.520Z,21.32
2022-10-28T20:39:31.856Z,21.09
2022-10-28T20:41:59.423Z,20.89
2022-10-28T20:44:27.689Z,20.16
2022-10-28T20:46:54.865Z,20.72
2022-10-28T20:49:22.271Z,20.98
2022-10-28T20:51:50.117Z,21.35
2022-10-28T20:54:17.251Z,21.29
2022-10-28T20:56:44.627Z,21.13
2022-10-28T20:59:11.769Z,20.94
2022-10-28T21:01:39.561Z,21.09
2022-10-28T21:04:08.272Z,21.01
2022-10-28T21:06:35.920Z,21.45
2022-10-28T21:09:05.051Z,21.71
2022-10-28T21:11:32.700Z,21.52
2022-10-28T21:14:00.318Z,21.58
2022-10-28T21:16:27.676Z,21.64
2022-10-28T21:18:55.270Z,21.55
2022-10-28T21:21:24.278Z,21.61
2022-10-28T21:23:51.470Z,21.67
2022-10-28T21:26:18.970Z,21.43
2022-10-28T21:28:53.192Z,21.35
2022-10-28T21:31:21.117Z,21.54
2022-10-28T21:36:21.009Z,21.71
2022-10-28T21:38:48.131Z,21.68
2022-10-28T21:41:18.900Z,21.76
2022-10-28T21:43:49.937Z,21.91
2022-10-28T21:46:17.565Z,21.85
2022-10-28T21:48:44.803Z,21.86
2022-10-28T21:51:14.747Z,21.57
2022-10-28T21:53:43.302Z,21.14
2022-10-28T21:56:16.639Z,21.50
2022-10-28T21:58:45.715Z,21.81
2022-10-28T22:01:13.930Z,21.65
2022-10-28T22:03:41.461Z,21.60
2022-10-28T22:06:08.582Z,21.84
2022-10-28T22:08:35.691Z,21.73
2022-10-28T22:11:07.389Z,21.80
2022-10-28T22:13:34.538Z,21.90
2022-10-28T22:16:02.429Z,21.77
2022-10-28T22:18:30.042Z,21.29
2022-10-28T22:20:57.354Z,21.47
2022-10-28T22:23:24.490Z,21.46
2022-10-28T22:25:51.883Z,21.45
2022-10-28T22:28:19.007Z,22.02
2022-10-28T22:30:46.146Z,21.37
2022-10-28T22:33:13.526Z,21.57
2022-10-28T22:35:40.678Z,20.97
2022-10-28T22:38:07.802Z,21.42
2022-10-28T22:40:35.360Z,21.41
2022-10-28T22:43:02.931Z,21.45
2022-10-28T22:45:30.053Z,21.60
2022-10-28T22:47:57.582Z,21.66
2022-10-28T22:50:25.078Z,21.43
2022-10-28T22:52:52.203Z,21.69
2022-10-28T22:55:19.600Z,21.51
2022-10-28T22:57:46.734Z,21.45
2022-10-28T23:00:14.016Z,21.57
2022-10-28T23:02:41.966Z,21.54
2022-10-28T23:05:09.244Z,21.86
2022-10-28T23:07:36.388Z,21.69
2022-10-28T23:10:03.938Z,21.51
2022-10-28T23:12:31.058Z,21.49
2022-10-28T23:14:58.784Z,21.50
2022-10-28T23:17:26.189Z,21.34
2022-10-28T23:19:53.314Z,21.29
2022-10-28T23:22:20.448Z,20.89
2022-10-28T23:24:47.863Z,20.87
2022-10-28T23:27:15.025Z,20.92
2022-10-28T23:29:42.145Z,21.22
2022-10-28T23:32:09.523Z,21.03
2022-10-28T23:34:36.619Z,21.22
2022-10-28T23:37:03.738Z,21.13
2022-10-28T23:39:31.090Z,21.23
2022-10-28T23:41:58.208Z,21.28
2022-10-28T23:44:25.335Z,21.24
2022-10-28T23:46:52.705Z,21.52
2022-10-28T23:49:20.207Z,21.70
2022-10-28T23:51:47.306Z,21.92
2022-10-28T23:54:14.685Z,21.83
2022-10-28T23:56:41.804Z,21.91
2022-10-28T23:59:08.907Z,21.73
